Randolph, Nebraska
Current Conditions -  °F | °C
As of 2:55 PM on Thursday 27 Nov 2014 (Local Time) from KLCG Reporting Station
Clear Clear  
Wind Chill:   Ceiling: Unl
Heat Index: 19°   Visibility: 10mi
Dew Point:   Wind: 14mph
Humidity: 59%   Direction: 130°SE
Pressure: 30.29"   Gusts: 20mph
Location:  42.38°N, 97.36°W
Report Text: KLCG 272055Z AUTO 13012G17KT 10SM CLR M07/M14 A3029 RMK AO2 T10701139
Loading
Personal Weather Stations






























Interactive Weather Map New forecast layout! Learn more

10-Day Weather Forecast

Advertisements
Track Severe Weather on mobile